sensor_id;sensor_type;location;lat;lon;timestamp;pressure;altitude;pressure_sealevel;temperature;humidity
6090;BME280;3073;42.660;23.316;2023-03-17T00:01:47;94681.22;;;1.47;100.00
6090;BME280;3073;42.660;23.316;2023-03-17T00:04:16;94682.84;;;1.70;100.00
6090;BME280;3073;42.660;23.316;2023-03-17T00:06:44;94681.50;;;1.74;100.00
6090;BME280;3073;42.660;23.316;2023-03-17T00:09:11;94684.50;;;1.63;100.00
6090;BME280;3073;42.660;23.316;2023-03-17T00:11:39;94688.22;;;1.52;100.00
6090;BME280;3073;42.660;23.316;2023-03-17T00:14:07;94687.88;;;1.70;100.00
6090;BME280;3073;42.660;23.316;2023-03-17T00:16:36;94686.75;;;1.58;100.00
6090;BME280;3073;42.660;23.316;2023-03-17T00:19:04;94686.47;;;1.67;100.00
6090;BME280;3073;42.660;23.316;2023-03-17T00:21:32;94690.38;;;1.70;100.00
6090;BME280;3073;42.660;23.316;2023-03-17T00:24:00;94686.72;;;1.72;100.00
6090;BME280;3073;42.660;23.316;2023-03-17T00:26:27;94689.19;;;1.87;100.00
6090;BME280;3073;42.660;23.316;2023-03-17T00:28:54;94688.81;;;1.69;100.00
6090;BME280;3073;42.660;23.316;2023-03-17T00:31:23;94687.38;;;1.81;100.00
6090;BME280;3073;42.660;23.316;2023-03-17T00:33:53;94688.47;;;1.72;100.00
6090;BME280;3073;42.660;23.316;2023-03-17T00:36:21;94686.41;;;1.96;100.00
6090;BME280;3073;42.660;23.316;2023-03-17T00:38:50;94680.88;;;1.86;100.00
6090;BME280;3073;42.660;23.316;2023-03-17T00:41:17;94681.44;;;1.67;100.00
6090;BME280;3073;42.660;23.316;2023-03-17T00:43:43;94687.25;;;1.68;100.00
6090;BME280;3073;42.660;23.316;2023-03-17T00:46:12;94690.91;;;1.65;100.00
6090;BME280;3073;42.660;23.316;2023-03-17T00:48:42;94680.03;;;1.79;100.00
6090;BME280;3073;42.660;23.316;2023-03-17T00:51:11;94681.44;;;1.67;100.00
6090;BME280;3073;42.660;23.316;2023-03-17T00:53:39;94683.94;;;1.82;100.00
6090;BME280;3073;42.660;23.316;2023-03-17T00:56:10;94687.38;;;1.81;100.00
6090;BME280;3073;42.660;23.316;2023-03-17T00:58:39;94684.22;;;1.72;100.00
6090;BME280;3073;42.660;23.316;2023-03-17T01:01:06;94694.78;;;1.82;100.00
6090;BME280;3073;42.660;23.316;2023-03-17T01:03:34;94685.63;;;1.96;100.00
6090;BME280;3073;42.660;23.316;2023-03-17T01:06:03;94690.53;;;1.83;100.00
6090;BME280;3073;42.660;23.316;2023-03-17T01:08:32;94699.38;;;1.79;100.00
6090;BME280;3073;42.660;23.316;2023-03-17T01:10:59;94703.44;;;1.80;100.00
6090;BME280;3073;42.660;23.316;2023-03-17T01:13:26;94695.41;;;1.70;100.00
6090;BME280;3073;42.660;23.316;2023-03-17T01:15:53;94693.81;;;1.83;100.00
6090;BME280;3073;42.660;23.316;2023-03-17T01:18:21;94697.72;;;1.71;100.00
6090;BME280;3073;42.660;23.316;2023-03-17T01:20:49;94694.84;;;1.89;100.00
6090;BME280;3073;42.660;23.316;2023-03-17T01:23:17;94700.75;;;1.81;100.00
6090;BME280;3073;42.660;23.316;2023-03-17T01:25:44;94692.78;;;1.78;100.00
6090;BME280;3073;42.660;23.316;2023-03-17T01:28:13;94695.56;;;1.83;100.00
6090;BME280;3073;42.660;23.316;2023-03-17T01:30:41;94696.34;;;1.83;100.00
6090;BME280;3073;42.660;23.316;2023-03-17T01:33:09;94697.72;;;1.71;100.00
6090;BME280;3073;42.660;23.316;2023-03-17T01:35:38;94701.81;;;1.58;100.00
6090;BME280;3073;42.660;23.316;2023-03-17T01:38:06;94701.47;;;1.75;100.00
6090;BME280;3073;42.660;23.316;2023-03-17T01:40:36;94702.31;;;1.82;100.00
6090;BME280;3073;42.660;23.316;2023-03-17T01:43:16;94705.69;;;1.75;100.00
6090;BME280;3073;42.660;23.316;2023-03-17T01:48:59;94702.25;;;1.61;100.00
6090;BME280;3073;42.660;23.316;2023-03-17T01:51:32;94702.47;;;1.81;100.00
6090;BME280;3073;42.660;23.316;2023-03-17T01:54:03;94701.88;;;1.93;100.00
6090;BME280;3073;42.660;23.316;2023-03-17T01:56:32;94704.63;;;1.84;100.00
6090;BME280;3073;42.660;23.316;2023-03-17T01:59:02;94699.88;;;1.74;100.00
6090;BME280;3073;42.660;23.316;2023-03-17T02:01:34;94711.72;;;1.59;100.00
6090;BME280;3073;42.660;23.316;2023-03-17T02:04:03;94713.25;;;1.75;100.00
6090;BME280;3073;42.660;23.316;2023-03-17T02:06:31;94712.81;;;1.71;100.00
6090;BME280;3073;42.660;23.316;2023-03-17T02:08:58;94713.41;;;1.88;100.00
6090;BME280;3073;42.660;23.316;2023-03-17T02:11:26;94717.56;;;1.81;100.00
6090;BME280;3073;42.660;23.316;2023-03-17T02:13:54;94715.69;;;1.83;100.00
6090;BME280;3073;42.660;23.316;2023-03-17T02:16:21;94717.41;;;2.03;100.00
6090;BME280;3073;42.660;23.316;2023-03-17T02:18:49;94717.75;;;2.15;100.00
6090;BME280;3073;42.660;23.316;2023-03-17T02:21:44;94716.66;;;2.24;100.00
6090;BME280;3073;42.660;23.316;2023-03-17T02:24:17;94721.41;;;2.13;100.00
6090;BME280;3073;42.660;23.316;2023-03-17T02:26:46;94719.13;;;2.18;100.00
6090;BME280;3073;42.660;23.316;2023-03-17T02:29:15;94721.84;;;2.16;100.00
6090;BME280;3073;42.660;23.316;2023-03-17T02:31:43;94723.13;;;2.12;100.00
6090;BME280;3073;42.660;23.316;2023-03-17T02:34:10;94725.00;;;2.25;100.00
6090;BME280;3073;42.660;23.316;2023-03-17T02:36:37;94728.19;;;1.97;100.00
6090;BME280;3073;42.660;23.316;2023-03-17T02:39:05;94727.69;;;1.87;100.00
6090;BME280;3073;42.660;23.316;2023-03-17T02:41:32;94732.72;;;1.87;100.00
6090;BME280;3073;42.660;23.316;2023-03-17T02:44:00;94742.31;;;2.13;100.00
6090;BME280;3073;42.660;23.316;2023-03-17T02:46:27;94737.78;;;2.23;100.00
6090;BME280;3073;42.660;23.316;2023-03-17T02:48:54;94743.19;;;2.05;100.00
6090;BME280;3073;42.660;23.316;2023-03-17T02:51:21;94748.31;;;1.97;100.00
6090;BME280;3073;42.660;23.316;2023-03-17T02:53:48;94743.06;;;2.14;100.00
6090;BME280;3073;42.660;23.316;2023-03-17T02:56:16;94748.31;;;1.97;100.00
6090;BME280;3073;42.660;23.316;2023-03-17T02:58:43;94751.75;;;1.90;100.00
6090;BME280;3073;42.660;23.316;2023-03-17T03:01:10;94750.75;;;2.05;100.00
6090;BME280;3073;42.660;23.316;2023-03-17T03:03:37;94752.38;;;2.13;100.00
6090;BME280;3073;42.660;23.316;2023-03-17T03:06:04;94755.84;;;2.12;100.00
6090;BME280;3073;42.660;23.316;2023-03-17T03:08:32;94753.91;;;1.93;100.00
6090;BME280;3073;42.660;23.316;2023-03-17T03:10:59;94756.06;;;1.81;100.00
6090;BME280;3073;42.660;23.316;2023-03-17T03:13:28;94757.28;;;2.00;100.00
6090;BME280;3073;42.660;23.316;2023-03-17T03:15:55;94762.38;;;2.06;100.00
6090;BME280;3073;42.660;23.316;2023-03-17T03:18:22;94756.63;;;2.13;100.00
6090;BME280;3073;42.660;23.316;2023-03-17T03:20:49;94761.31;;;2.16;100.00
6090;BME280;3073;42.660;23.316;2023-03-17T03:23:16;94767.97;;;2.23;100.00
6090;BME280;3073;42.660;23.316;2023-03-17T03:25:43;94767.22;;;2.08;100.00
6090;BME280;3073;42.660;23.316;2023-03-17T03:28:10;94767.91;;;2.17;100.00
6090;BME280;3073;42.660;23.316;2023-03-17T03:30:38;94769.16;;;2.27;100.00
6090;BME280;3073;42.660;23.316;2023-03-17T03:33:05;94769.00;;;2.29;100.00
6090;BME280;3073;42.660;23.316;2023-03-17T03:35:32;94775.75;;;2.28;100.00
6090;BME280;3073;42.660;23.316;2023-03-17T03:38:00;94781.38;;;2.30;100.00
6090;BME280;3073;42.660;23.316;2023-03-17T03:40:27;94782.78;;;2.33;100.00
6090;BME280;3073;42.660;23.316;2023-03-17T03:42:53;94782.66;;;2.41;100.00
6090;BME280;3073;42.660;23.316;2023-03-17T03:45:20;94782.00;;;2.32;100.00
6090;BME280;3073;42.660;23.316;2023-03-17T03:47:49;94785.34;;;2.18;100.00
6090;BME280;3073;42.660;23.316;2023-03-17T03:50:16;94784.13;;;2.14;100.00
6090;BME280;3073;42.660;23.316;2023-03-17T03:52:42;94790.72;;;2.15;100.00
6090;BME280;3073;42.660;23.316;2023-03-17T03:55:09;94789.06;;;2.07;100.00
6090;BME280;3073;42.660;23.316;2023-03-17T03:57:36;94786.19;;;1.89;100.00
6090;BME280;3073;42.660;23.316;2023-03-17T04:00:05;94790.06;;;2.06;100.00
6090;BME280;3073;42.660;23.316;2023-03-17T04:02:33;94792.22;;;2.10;100.00
6090;BME280;3073;42.660;23.316;2023-03-17T04:05:01;94796.81;;;2.06;100.00
6090;BME280;3073;42.660;23.316;2023-03-17T04:07:30;94802.81;;;1.90;100.00
6090;BME280;3073;42.660;23.316;2023-03-17T04:09:56;94800.06;;;1.85;100.00
6090;BME280;3073;42.660;23.316;2023-03-17T04:12:24;94798.66;;;1.83;100.00
6090;BME280;3073;42.660;23.316;2023-03-17T04:14:51;94793.13;;;1.73;100.00
6090;BME280;3073;42.660;23.316;2023-03-17T04:17:18;94798.75;;;1.75;100.00
6090;BME280;3073;42.660;23.316;2023-03-17T04:19:45;94807.16;;;1.96;100.00
6090;BME280;3073;42.660;23.316;2023-03-17T04:22:13;94816.41;;;2.11;100.00
6090;BME280;3073;42.660;23.316;2023-03-17T04:24:40;94814.09;;;2.30;100.00
6090;BME280;3073;42.660;23.316;2023-03-17T04:27:07;94825.03;;;2.37;100.00
6090;BME280;3073;42.660;23.316;2023-03-17T04:29:35;94817.97;;;2.47;100.00
6090;BME280;3073;42.660;23.316;2023-03-17T04:32:02;94818.66;;;2.20;100.00
6090;BME280;3073;42.660;23.316;2023-03-17T04:34:29;94819.25;;;2.22;100.00
6090;BME280;3073;42.660;23.316;2023-03-17T04:36:55;94827.53;;;2.16;100.00
6090;BME280;3073;42.660;23.316;2023-03-17T04:39:24;94822.41;;;2.10;100.00
6090;BME280;3073;42.660;23.316;2023-03-17T04:41:51;94824.38;;;2.14;100.00
6090;BME280;3073;42.660;23.316;2023-03-17T04:44:18;94825.09;;;2.08;100.00
6090;BME280;3073;42.660;23.316;2023-03-17T04:46:45;94816.41;;;2.11;100.00
6090;BME280;3073;42.660;23.316;2023-03-17T04:49:12;94828.47;;;2.00;100.00
6090;BME280;3073;42.660;23.316;2023-03-17T04:51:39;94824.31;;;2.07;100.00
6090;BME280;3073;42.660;23.316;2023-03-17T04:54:06;94825.94;;;2.15;100.00
6090;BME280;3073;42.660;23.316;2023-03-17T04:56:35;94830.28;;;2.21;100.00
6090;BME280;3073;42.660;23.316;2023-03-17T04:59:02;94836.38;;;2.27;100.00
6090;BME280;3073;42.660;23.316;2023-03-17T05:01:29;94841.91;;;2.22;100.00
6090;BME280;3073;42.660;23.316;2023-03-17T05:03:59;94841.56;;;2.25;100.00
6090;BME280;3073;42.660;23.316;2023-03-17T05:06:26;94846.94;;;2.22;100.00
6090;BME280;3073;42.660;23.316;2023-03-17T05:08:54;94849.34;;;2.30;100.00
6090;BME280;3073;42.660;23.316;2023-03-17T05:11:21;94851.38;;;2.05;100.00
6090;BME280;3073;42.660;23.316;2023-03-17T05:13:53;94852.97;;;2.06;100.00
6090;BME280;3073;42.660;23.316;2023-03-17T05:16:22;94865.28;;;2.16;100.00
6090;BME280;3073;42.660;23.316;2023-03-17T05:18:49;94874.00;;;2.35;100.00
6090;BME280;3073;42.660;23.316;2023-03-17T05:21:16;94870.34;;;2.37;100.00
6090;BME280;3073;42.660;23.316;2023-03-17T05:23:43;94871.31;;;2.07;100.00
6090;BME280;3073;42.660;23.316;2023-03-17T05:26:12;94867.88;;;1.93;100.00
6090;BME280;3073;42.660;23.316;2023-03-17T05:28:39;94870.91;;;2.03;100.00
6090;BME280;3073;42.660;23.316;2023-03-17T05:31:07;94876.34;;;2.07;100.00
6090;BME280;3073;42.660;23.316;2023-03-17T05:33:34;94880.69;;;2.28;100.00
6090;BME280;3073;42.660;23.316;2023-03-17T05:36:02;94881.31;;;2.00;100.00
6090;BME280;3073;42.660;23.316;2023-03-17T05:38:29;94881.66;;;1.97;100.00
6090;BME280;3073;42.660;23.316;2023-03-17T05:40:57;94886.44;;;2.07;100.00
6090;BME280;3073;42.660;23.316;2023-03-17T05:43:24;94888.97;;;1.92;100.00
6090;BME280;3073;42.660;23.316;2023-03-17T05:45:51;94892.69;;;2.11;100.00
6090;BME280;3073;42.660;23.316;2023-03-17T05:48:19;94890.31;;;2.24;100.00
6090;BME280;3073;42.660;23.316;2023-03-17T05:50:47;94885.47;;;2.23;100.00
6090;BME280;3073;42.660;23.316;2023-03-17T05:53:14;94893.47;;;2.26;100.00
6090;BME280;3073;42.660;23.316;2023-03-17T05:55:42;94889.81;;;2.29;100.00
6090;BME280;3073;42.660;23.316;2023-03-17T05:58:09;94894.50;;;2.17;100.00
6090;BME280;3073;42.660;23.316;2023-03-17T06:00:36;94892.84;;;2.39;100.00
6090;BME280;3073;42.660;23.316;2023-03-17T06:03:03;94899.88;;;2.14;100.00
6090;BME280;3073;42.660;23.316;2023-03-17T06:05:32;94906.66;;;2.28;100.00
6090;BME280;3073;42.660;23.316;2023-03-17T06:07:59;94913.91;;;2.52;100.00
6090;BME280;3073;42.660;23.316;2023-03-17T06:10:27;94919.16;;;2.36;100.00
6090;BME280;3073;42.660;23.316;2023-03-17T06:12:55;94923.56;;;2.34;100.00
6090;BME280;3073;42.660;23.316;2023-03-17T06:15:23;94930.25;;;2.56;100.00
6090;BME280;3073;42.660;23.316;2023-03-17T06:17:50;94925.22;;;2.56;100.00
6090;BME280;3073;42.660;23.316;2023-03-17T06:20:18;94935.44;;;2.40;100.00
6090;BME280;3073;42.660;23.316;2023-03-17T06:22:46;94937.97;;;2.55;100.00
6090;BME280;3073;42.660;23.316;2023-03-17T06:25:13;94944.81;;;2.76;100.00
6090;BME280;3073;42.660;23.316;2023-03-17T06:27:40;94941.50;;;2.75;100.00
6090;BME280;3073;42.660;23.316;2023-03-17T06:30:08;94944.97;;;2.74;100.00
6090;BME280;3073;42.660;23.316;2023-03-17T06:32:35;94947.06;;;2.71;100.00
6090;BME280;3073;42.660;23.316;2023-03-17T06:35:03;94943.84;;;2.77;100.00
6090;BME280;3073;42.660;23.316;2023-03-17T06:37:34;94950.28;;;2.79;100.00
6090;BME280;3073;42.660;23.316;2023-03-17T06:40:04;94941.47;;;2.90;100.00
6090;BME280;3073;42.660;23.316;2023-03-17T06:42:35;94948.97;;;2.69;100.00
6090;BME280;3073;42.660;23.316;2023-03-17T06:45:03;94947.63;;;2.87;100.00
6090;BME280;3073;42.660;23.316;2023-03-17T06:47:30;94945.00;;;2.95;100.00
6090;BME280;3073;42.660;23.316;2023-03-17T06:50:02;94953.34;;;2.96;100.00
6090;BME280;3073;42.660;23.316;2023-03-17T06:52:29;94957.19;;;2.77;100.00
6090;BME280;3073;42.660;23.316;2023-03-17T06:54:56;94956.69;;;2.82;100.00
6090;BME280;3073;42.660;23.316;2023-03-17T06:57:24;94959.63;;;3.21;100.00
6090;BME280;3073;42.660;23.316;2023-03-17T06:59:51;94961.31;;;3.35;100.00
6090;BME280;3073;42.660;23.316;2023-03-17T07:02:18;94957.00;;;3.29;100.00
6090;BME280;3073;42.660;23.316;2023-03-17T07:04:45;94963.16;;;3.48;100.00
6090;BME280;3073;42.660;23.316;2023-03-17T07:07:12;94959.91;;;3.54;100.00
6090;BME280;3073;42.660;23.316;2023-03-17T07:09:39;94961.84;;;3.52;100.00
6090;BME280;3073;42.660;23.316;2023-03-17T07:12:06;94963.22;;;3.76;100.00
6090;BME280;3073;42.660;23.316;2023-03-17T07:14:36;94969.69;;;3.85;100.00
6090;BME280;3073;42.660;23.316;2023-03-17T07:17:04;94973.53;;;3.81;100.00
6090;BME280;3073;42.660;23.316;2023-03-17T07:19:32;94967.78;;;3.87;100.00
6090;BME280;3073;42.660;23.316;2023-03-17T07:21:59;94968.88;;;3.56;100.00
6090;BME280;3073;42.660;23.316;2023-03-17T07:24:26;94970.78;;;3.97;100.00
6090;BME280;3073;42.660;23.316;2023-03-17T07:26:53;94975.41;;;3.93;100.00
6090;BME280;3073;42.660;23.316;2023-03-17T07:29:20;94972.69;;;3.95;100.00
6090;BME280;3073;42.660;23.316;2023-03-17T07:31:49;94981.19;;;3.94;100.00
6090;BME280;3073;42.660;23.316;2023-03-17T07:34:16;94975.06;;;4.03;100.00
6090;BME280;3073;42.660;23.316;2023-03-17T07:36:43;94981.75;;;4.17;100.00
6090;BME280;3073;42.660;23.316;2023-03-17T07:39:10;94980.34;;;4.36;100.00
6090;BME280;3073;42.660;23.316;2023-03-17T07:41:37;94978.41;;;4.38;100.00
6090;BME280;3073;42.660;23.316;2023-03-17T07:44:04;94979.56;;;4.35;100.00
6090;BME280;3073;42.660;23.316;2023-03-17T07:46:31;94985.06;;;4.45;100.00
6090;BME280;3073;42.660;23.316;2023-03-17T07:48:59;94985.31;;;3.95;100.00
6090;BME280;3073;42.660;23.316;2023-03-17T07:51:26;94980.63;;;4.20;100.00
6090;BME280;3073;42.660;23.316;2023-03-17T07:53:53;94989.16;;;4.19;100.00
6090;BME280;3073;42.660;23.316;2023-03-17T07:56:28;94994.84;;;3.99;100.00
6090;BME280;3073;42.660;23.316;2023-03-17T07:58:54;94993.81;;;3.94;100.00
6090;BME280;3073;42.660;23.316;2023-03-17T08:01:22;94996.50;;;3.86;100.00
6090;BME280;3073;42.660;23.316;2023-03-17T08:03:49;94995.06;;;3.77;100.00
6090;BME280;3073;42.660;23.316;2023-03-17T08:06:18;94992.44;;;3.91;100.00
6090;BME280;3073;42.660;23.316;2023-03-17T08:08:46;94997.31;;;4.21;100.00
6090;BME280;3073;42.660;23.316;2023-03-17T08:11:13;95004.22;;;4.33;100.00
6090;BME280;3073;42.660;23.316;2023-03-17T08:13:41;95000.41;;;4.16;100.00
6090;BME280;3073;42.660;23.316;2023-03-17T08:16:08;95001.91;;;4.38;100.00
6090;BME280;3073;42.660;23.316;2023-03-17T08:18:35;95006.75;;;4.33;100.00
6090;BME280;3073;42.660;23.316;2023-03-17T08:21:02;95000.22;;;4.45;100.00
6090;BME280;3073;42.660;23.316;2023-03-17T08:23:31;94998.03;;;4.70;100.00
6090;BME280;3073;42.660;23.316;2023-03-17T08:25:59;94997.69;;;4.80;100.00
6090;BME280;3073;42.660;23.316;2023-03-17T08:28:27;95001.31;;;5.18;100.00
6090;BME280;3073;42.660;23.316;2023-03-17T08:31:05;94997.09;;;5.38;100.00
6090;BME280;3073;42.660;23.316;2023-03-17T08:33:32;94995.38;;;5.65;100.00
6090;BME280;3073;42.660;23.316;2023-03-17T08:36:03;94997.91;;;5.65;100.00
6090;BME280;3073;42.660;23.316;2023-03-17T08:38:32;94995.19;;;5.53;100.00
6090;BME280;3073;42.660;23.316;2023-03-17T08:41:00;94994.25;;;5.87;100.00
6090;BME280;3073;42.660;23.316;2023-03-17T08:43:27;94996.56;;;5.56;100.00
6090;BME280;3073;42.660;23.316;2023-03-17T08:46:01;94998.69;;;5.65;100.00
6090;BME280;3073;42.660;23.316;2023-03-17T08:48:28;94993.19;;;5.29;100.00
6090;BME280;3073;42.660;23.316;2023-03-17T08:50:55;94997.50;;;5.42;100.00
6090;BME280;3073;42.660;23.316;2023-03-17T08:53:23;94998.66;;;5.33;100.00
6090;BME280;3073;42.660;23.316;2023-03-17T08:55:53;94993.97;;;5.36;100.00
6090;BME280;3073;42.660;23.316;2023-03-17T08:58:21;94994.81;;;5.76;100.00
6090;BME280;3073;42.660;23.316;2023-03-17T09:00:48;94993.22;;;5.42;100.00
6090;BME280;3073;42.660;23.316;2023-03-17T09:03:18;94995.31;;;5.32;100.00
6090;BME280;3073;42.660;23.316;2023-03-17T09:05:49;94998.25;;;5.29;100.00
6090;BME280;3073;42.660;23.316;2023-03-17T09:08:16;95004.53;;;5.59;100.00
6090;BME280;3073;42.660;23.316;2023-03-17T09:10:43;95001.69;;;6.02;100.00
6090;BME280;3073;42.660;23.316;2023-03-17T09:13:11;95003.38;;;6.47;100.00
6090;BME280;3073;42.660;23.316;2023-03-17T09:15:38;95006.22;;;6.90;100.00
6090;BME280;3073;42.660;23.316;2023-03-17T09:18:06;95005.09;;;7.24;100.00
6090;BME280;3073;42.660;23.316;2023-03-17T09:20:33;95002.91;;;6.90;100.00
6090;BME280;3073;42.660;23.316;2023-03-17T09:23:04;95006.06;;;6.79;100.00
6090;BME280;3073;42.660;23.316;2023-03-17T09:25:33;95011.66;;;7.00;100.00
6090;BME280;3073;42.660;23.316;2023-03-17T09:28:00;95007.06;;;7.22;100.00
6090;BME280;3073;42.660;23.316;2023-03-17T09:30:29;95012.59;;;7.50;100.00
6090;BME280;3073;42.660;23.316;2023-03-17T09:32:56;95006.09;;;7.23;100.00
6090;BME280;3073;42.660;23.316;2023-03-17T09:35:23;95008.28;;;7.51;100.00
6090;BME280;3073;42.660;23.316;2023-03-17T09:37:50;95000.38;;;7.65;100.00
6090;BME280;3073;42.660;23.316;2023-03-17T09:40:18;95010.38;;;7.60;100.00
6090;BME280;3073;42.660;23.316;2023-03-17T09:42:54;95017.78;;;7.93;100.00
6090;BME280;3073;42.660;23.316;2023-03-17T09:45:31;95019.03;;;8.09;100.00
6090;BME280;3073;42.660;23.316;2023-03-17T09:48:17;95017.31;;;8.03;98.35
6090;BME280;3073;42.660;23.316;2023-03-17T09:50:51;95012.66;;;7.68;96.87
6090;BME280;3073;42.660;23.316;2023-03-17T09:53:22;95013.31;;;7.89;97.22
6090;BME280;3073;42.660;23.316;2023-03-17T09:55:54;95019.59;;;7.17;100.00
6090;BME280;3073;42.660;23.316;2023-03-17T09:58:27;95016.81;;;7.25;100.00
6090;BME280;3073;42.660;23.316;2023-03-17T10:00:56;95015.13;;;6.22;100.00
6090;BME280;3073;42.660;23.316;2023-03-17T10:03:24;95022.41;;;6.89;100.00
6090;BME280;3073;42.660;23.316;2023-03-17T10:05:52;95027.06;;;6.99;100.00
6090;BME280;3073;42.660;23.316;2023-03-17T10:08:22;95022.22;;;7.35;100.00
6090;BME280;3073;42.660;23.316;2023-03-17T10:10:55;95015.31;;;7.49;100.00
6090;BME280;3073;42.660;23.316;2023-03-17T10:13:37;95012.06;;;7.73;100.00
6090;BME280;3073;42.660;23.316;2023-03-17T10:16:11;95009.88;;;7.76;100.00
6090;BME280;3073;42.660;23.316;2023-03-17T10:18:42;95020.19;;;8.13;100.00
6090;BME280;3073;42.660;23.316;2023-03-17T10:21:16;95015.66;;;8.15;100.00
6090;BME280;3073;42.660;23.316;2023-03-17T10:23:44;95014.00;;;7.40;100.00
6090;BME280;3073;42.660;23.316;2023-03-17T10:26:21;95011.47;;;6.89;100.00
6090;BME280;3073;42.660;23.316;2023-03-17T10:28:51;95016.91;;;6.99;100.00
6090;BME280;3073;42.660;23.316;2023-03-17T10:31:26;95012.50;;;6.74;100.00
6090;BME280;3073;42.660;23.316;2023-03-17T10:33:54;95005.28;;;6.71;100.00
6090;BME280;3073;42.660;23.316;2023-03-17T10:36:33;95006.91;;;6.46;100.00
6090;BME280;3073;42.660;23.316;2023-03-17T10:39:03;95002.63;;;6.47;100.00
6090;BME280;3073;42.660;23.316;2023-03-17T10:41:32;95008.06;;;6.63;100.00
6090;BME280;3073;42.660;23.316;2023-03-17T10:44:00;95004.16;;;6.48;100.00
6090;BME280;3073;42.660;23.316;2023-03-17T10:46:29;95007.34;;;6.24;100.00
6090;BME280;3073;42.660;23.316;2023-03-17T10:48:57;94999.47;;;6.51;100.00
6090;BME280;3073;42.660;23.316;2023-03-17T10:51:31;95003.72;;;6.64;100.00
6090;BME280;3073;42.660;23.316;2023-03-17T10:54:07;94997.94;;;6.57;100.00
6090;BME280;3073;42.660;23.316;2023-03-17T10:56:36;94988.16;;;6.47;100.00
6090;BME280;3073;42.660;23.316;2023-03-17T10:59:06;94982.66;;;6.77;100.00
6090;BME280;3073;42.660;23.316;2023-03-17T11:01:37;94974.44;;;6.81;100.00
6090;BME280;3073;42.660;23.316;2023-03-17T11:04:25;94983.09;;;7.11;98.82
6090;BME280;3073;42.660;23.316;2023-03-17T11:06:55;94973.19;;;7.41;94.80
6090;BME280;3073;42.660;23.316;2023-03-17T11:09:23;94967.13;;;7.73;92.00
6090;BME280;3073;42.660;23.316;2023-03-17T11:12:01;94974.44;;;7.63;87.61
6090;BME280;3073;42.660;23.316;2023-03-17T11:14:28;94962.97;;;8.28;92.36
6090;BME280;3073;42.660;23.316;2023-03-17T11:16:58;94960.41;;;7.54;91.63
6090;BME280;3073;42.660;23.316;2023-03-17T11:19:34;94957.88;;;7.23;91.33
6090;BME280;3073;42.660;23.316;2023-03-17T11:22:07;94960.94;;;7.32;92.20
6090;BME280;3073;42.660;23.316;2023-03-17T11:24:42;94966.44;;;7.85;92.06
6090;BME280;3073;42.660;23.316;2023-03-17T11:27:19;94966.81;;;8.13;89.98
6090;BME280;3073;42.660;23.316;2023-03-17T11:30:09;94961.59;;;8.51;91.25
6090;BME280;3073;42.660;23.316;2023-03-17T11:32:44;94967.31;;;8.83;81.84
6090;BME280;3073;42.660;23.316;2023-03-17T11:38:21;94958.47;;;9.74;75.78
6090;BME280;3073;42.660;23.316;2023-03-17T11:44:17;94959.31;;;10.21;74.13
6090;BME280;3073;42.660;23.316;2023-03-17T11:46:57;94954.56;;;10.37;70.02
6090;BME280;3073;42.660;23.316;2023-03-17T11:49:35;94958.97;;;10.41;66.81
6090;BME280;3073;42.660;23.316;2023-03-17T11:52:06;94959.00;;;10.29;66.85
6090;BME280;3073;42.660;23.316;2023-03-17T11:54:45;94954.88;;;10.28;67.68
6090;BME280;3073;42.660;23.316;2023-03-17T11:57:19;94952.09;;;10.42;67.71
6090;BME280;3073;42.660;23.316;2023-03-17T11:59:51;94947.66;;;10.60;68.13
6090;BME280;3073;42.660;23.316;2023-03-17T12:02:24;94948.22;;;11.02;66.27
6090;BME280;3073;42.660;23.316;2023-03-17T12:04:57;94948.94;;;10.86;62.23
6090;BME280;3073;42.660;23.316;2023-03-17T12:07:33;94946.41;;;11.43;61.36
6090;BME280;3073;42.660;23.316;2023-03-17T12:10:07;94953.94;;;11.94;60.53
6090;BME280;3073;42.660;23.316;2023-03-17T12:12:46;94941.88;;;11.78;61.00
6090;BME280;3073;42.660;23.316;2023-03-17T12:15:21;94942.44;;;11.52;61.89
6090;BME280;3073;42.660;23.316;2023-03-17T12:17:55;94941.56;;;12.08;61.45
6090;BME280;3073;42.660;23.316;2023-03-17T12:20:29;94937.81;;;11.94;60.81
6090;BME280;3073;42.660;23.316;2023-03-17T12:23:01;94936.84;;;12.33;59.44
6090;BME280;3073;42.660;23.316;2023-03-17T12:25:33;94932.03;;;12.58;58.37
6090;BME280;3073;42.660;23.316;2023-03-17T12:28:05;94931.03;;;12.81;55.95
6090;BME280;3073;42.660;23.316;2023-03-17T12:30:42;94933.34;;;12.82;56.65
6090;BME280;3073;42.660;23.316;2023-03-17T12:33:18;94929.91;;;12.50;53.65
6090;BME280;3073;42.660;23.316;2023-03-17T12:35:47;94929.53;;;12.85;53.94
6090;BME280;3073;42.660;23.316;2023-03-17T12:38:17;94921.94;;;11.47;55.22
6090;BME280;3073;42.660;23.316;2023-03-17T12:41:05;94930.06;;;10.24;57.78
6090;BME280;3073;42.660;23.316;2023-03-17T12:43:38;94925.94;;;10.00;59.75
6090;BME280;3073;42.660;23.316;2023-03-17T12:46:23;94923.03;;;10.94;60.29
6090;BME280;3073;42.660;23.316;2023-03-17T12:49:16;94932.59;;;11.88;56.97
6090;BME280;3073;42.660;23.316;2023-03-17T12:52:05;94926.97;;;11.86;57.73
6090;BME280;3073;42.660;23.316;2023-03-17T12:54:38;94923.38;;;11.87;58.11
6090;BME280;3073;42.660;23.316;2023-03-17T12:57:11;94925.56;;;12.72;55.63
6090;BME280;3073;42.660;23.316;2023-03-17T12:59:41;94927.63;;;13.19;55.50
6090;BME280;3073;42.660;23.316;2023-03-17T13:02:16;94923.50;;;14.45;53.00
6090;BME280;3073;42.660;23.316;2023-03-17T13:04:48;94921.25;;;15.26;51.04
6090;BME280;3073;42.660;23.316;2023-03-17T13:07:25;94921.75;;;15.28;48.27
6090;BME280;3073;42.660;23.316;2023-03-17T13:10:36;94912.63;;;13.91;49.88
6090;BME280;3073;42.660;23.316;2023-03-17T13:13:11;94923.81;;;13.48;50.99
6090;BME280;3073;42.660;23.316;2023-03-17T13:15:53;94926.50;;;12.66;53.93
6090;BME280;3073;42.660;23.316;2023-03-17T13:18:28;94935.19;;;12.65;53.63
6090;BME280;3073;42.660;23.316;2023-03-17T13:21:11;94923.00;;;12.94;53.20
6090;BME280;3073;42.660;23.316;2023-03-17T13:23:43;94918.66;;;13.16;52.00
6090;BME280;3073;42.660;23.316;2023-03-17T13:26:11;94913.41;;;13.91;52.61
6090;BME280;3073;42.660;23.316;2023-03-17T13:28:44;94912.66;;;14.85;52.91
6090;BME280;3073;42.660;23.316;2023-03-17T13:31:31;94910.28;;;15.51;49.61
6090;BME280;3073;42.660;23.316;2023-03-17T13:34:10;94918.97;;;14.62;50.10
6090;BME280;3073;42.660;23.316;2023-03-17T13:36:44;94918.00;;;14.31;49.14